createdAt,value
2022-10-19T00:02:08.464Z,100379.78
2022-10-19T00:04:34.999Z,100378.72
2022-10-19T00:07:01.407Z,100367.38
2022-10-19T00:09:29.147Z,100366.16
2022-10-19T00:11:56.337Z,100367.97
2022-10-19T00:14:24.273Z,100372.03
2022-10-19T00:16:53.010Z,100365.34
2022-10-19T00:19:23.444Z,100376.41
2022-10-19T00:24:22.278Z,100362.72
2022-10-19T00:26:48.711Z,100362.75
2022-10-19T00:29:15.648Z,100363.16
2022-10-19T00:31:42.355Z,100360.09
2022-10-19T00:34:09.097Z,100359.97
2022-10-19T00:36:40.032Z,100363.63
2022-10-19T00:39:10.403Z,100357.91
2022-10-19T00:41:37.116Z,100360.97
2022-10-19T00:44:07.142Z,100354.56
2022-10-19T00:46:37.031Z,100355.25
2022-10-19T00:49:27.326Z,100369.94
2022-10-19T00:51:56.865Z,100365.22
2022-10-19T00:54:24.066Z,100359.47
2022-10-19T00:56:52.211Z,100367.72
2022-10-19T00:59:20.960Z,100363.56
2022-10-19T01:01:48.207Z,100360.75
2022-10-19T01:04:15.071Z,100358.78
2022-10-19T01:06:42.060Z,100351.22
2022-10-19T01:09:09.268Z,100352.09
2022-10-19T01:11:59.104Z,100350.13
2022-10-19T01:14:28.013Z,100348.72
2022-10-19T01:17:06.552Z,100340.59
2022-10-19T01:20:05.487Z,100336.94
2022-10-19T01:23:09.053Z,100334.16
2022-10-19T01:25:56.969Z,100334.44
2022-10-19T01:28:32.587Z,100345.31
2022-10-19T01:31:03.921Z,100339.91
2022-10-19T01:33:33.542Z,100333.88
2022-10-19T01:36:09.227Z,100331.09
2022-10-19T01:38:44.840Z,100321.59
2022-10-19T01:41:16.617Z,100319.59
2022-10-19T01:44:08.023Z,100320.88
2022-10-19T01:46:39.528Z,100319.34
2022-10-19T01:49:13.419Z,100315.84
2022-10-19T01:51:43.960Z,100314.03
2022-10-19T01:54:12.728Z,100316.97
2022-10-19T01:56:42.380Z,100316.03
2022-10-19T01:59:10.608Z,100313.78
2022-10-19T02:01:39.787Z,100313.78
2022-10-19T02:04:06.714Z,100303.41
2022-10-19T02:06:33.240Z,100303.41
2022-10-19T02:09:00.085Z,100297.25
2022-10-19T02:11:26.612Z,100291.66
2022-10-19T02:13:58.551Z,100292.66
2022-10-19T02:16:38.627Z,100305.09
2022-10-19T02:19:08.592Z,100299.66
2022-10-19T02:21:35.228Z,100298.09
2022-10-19T02:24:01.646Z,100284.13
2022-10-19T02:26:28.260Z,100289.59
2022-10-19T02:28:56.179Z,100299.38
2022-10-19T02:31:23.036Z,100295.44
2022-10-19T02:33:49.530Z,100289.44
2022-10-19T02:36:16.128Z,100281.22
2022-10-19T02:38:42.651Z,100292.78
2022-10-19T02:41:15.752Z,100285.22
2022-10-19T02:43:43.072Z,100283.56
2022-10-19T02:46:36.810Z,100284.28
2022-10-19T02:49:04.510Z,100280.22
2022-10-19T02:51:36.790Z,100286.97
2022-10-19T02:54:05.457Z,100276.88
2022-10-19T02:56:33.378Z,100289.75
2022-10-19T02:59:00.112Z,100277.44
2022-10-19T03:01:26.847Z,100282.75
2022-10-19T03:03:53.305Z,100281.91
2022-10-19T03:06:20.020Z,100273.25
2022-10-19T03:08:46.773Z,100273.97
2022-10-19T03:11:13.228Z,100274.94
2022-10-19T03:13:41.339Z,100280.50
2022-10-19T03:16:09.703Z,100273.41
2022-10-19T03:18:36.281Z,100274.09
2022-10-19T03:21:08.421Z,100270.91
2022-10-19T03:23:35.209Z,100267.00
2022-10-19T03:26:01.712Z,100272.44
2022-10-19T03:28:28.668Z,100263.75
2022-10-19T03:30:55.224Z,100272.97
2022-10-19T03:33:22.500Z,100272.16
2022-10-19T03:35:49.114Z,100271.56
2022-10-19T03:38:16.190Z,100258.31
2022-10-19T03:40:42.796Z,100266.41
2022-10-19T03:43:09.326Z,100265.59
2022-10-19T03:45:35.980Z,100261.53
2022-10-19T03:48:02.438Z,100259.69
2022-10-19T03:50:28.901Z,100257.34
2022-10-19T03:52:55.585Z,100250.91
2022-10-19T03:55:22.455Z,100255.09
2022-10-19T03:57:48.960Z,100247.84
2022-10-19T04:00:15.804Z,100250.91
2022-10-19T04:02:42.344Z,100254.25
2022-10-19T04:05:09.101Z,100254.53
2022-10-19T04:07:35.874Z,100250.91
2022-10-19T04:10:02.465Z,100255.09
2022-10-19T04:12:29.097Z,100253.44
2022-10-19T04:14:57.778Z,100253.13
2022-10-19T04:17:25.488Z,100241.69
2022-10-19T04:19:51.992Z,100252.59
2022-10-19T04:22:18.476Z,100247.81
2022-10-19T04:24:44.965Z,100259.84
2022-10-19T04:27:11.592Z,100246.16
2022-10-19T04:29:38.064Z,100249.75
2022-10-19T04:32:04.664Z,100247.28
2022-10-19T04:34:35.158Z,100242.50
2022-10-19T04:37:04.157Z,100245.03
2022-10-19T04:39:32.769Z,100239.16
2022-10-19T04:41:59.327Z,100242.66
2022-10-19T04:44:25.808Z,100236.94
2022-10-19T04:46:52.378Z,100242.50
2022-10-19T04:49:20.334Z,100227.56
2022-10-19T04:51:46.970Z,100220.44
2022-10-19T04:54:13.552Z,100227.56
2022-10-19T04:56:40.111Z,100222.94
2022-10-19T04:59:06.631Z,100230.22
2022-10-19T05:01:33.271Z,100217.78
2022-10-19T05:04:01.481Z,100223.34
2022-10-19T05:06:28.296Z,100233.28
2022-10-19T05:08:54.885Z,100223.47
2022-10-19T05:11:21.630Z,100213.16
2022-10-19T05:13:48.553Z,100234.09
2022-10-19T05:16:18.072Z,100230.50
2022-10-19T05:18:51.399Z,100233.84
2022-10-19T05:21:18.892Z,100232.88
2022-10-19T05:23:45.424Z,100226.56
2022-10-19T05:26:17.638Z,100237.19
2022-10-19T05:28:52.000Z,100240.53
2022-10-19T05:31:20.700Z,100238.59
2022-10-19T05:33:47.277Z,100235.66
2022-10-19T05:36:14.805Z,100234.94
2022-10-19T05:38:42.311Z,100236.94
2022-10-19T05:41:08.880Z,100240.97
2022-10-19T05:43:35.431Z,100239.84
2022-10-19T05:46:10.548Z,100246.97
2022-10-19T05:48:37.640Z,100246.13
2022-10-19T05:51:05.684Z,100240.25
2022-10-19T05:53:33.385Z,100238.56
2022-10-19T05:56:00.136Z,100244.72
2022-10-19T05:58:26.860Z,100232.13
2022-10-19T06:00:54.262Z,100233.41
2022-10-19T06:03:22.314Z,100231.16
2022-10-19T06:05:49.572Z,100235.47
2022-10-19T06:08:17.473Z,100239.13
2022-10-19T06:10:44.855Z,100235.47
2022-10-19T06:13:12.239Z,100232.97
2022-10-19T06:15:40.428Z,100240.78
2022-10-19T06:18:07.647Z,100233.53
2022-10-19T06:20:35.479Z,100234.09
2022-10-19T06:23:02.684Z,100242.19
2022-10-19T06:25:33.686Z,100235.88
2022-10-19T06:28:00.715Z,100242.47
2022-10-19T06:30:27.809Z,100236.16
2022-10-19T06:32:54.677Z,100246.25
2022-10-19T06:35:21.521Z,100245.25
2022-10-19T06:37:47.983Z,100238.53
2022-10-19T06:40:14.574Z,100240.94
2022-10-19T06:42:41.088Z,100239.38
2022-10-19T06:45:10.797Z,100236.41
2022-10-19T06:47:37.780Z,100241.59
2022-10-19T06:50:06.559Z,100233.19
2022-10-19T06:52:34.408Z,100239.88
2022-10-19T06:55:01.593Z,100234.56
2022-10-19T06:57:28.737Z,100242.97
2022-10-19T06:59:55.604Z,100250.06
2022-10-19T07:02:22.524Z,100252.59
2022-10-19T07:04:48.973Z,100248.28
2022-10-19T07:07:15.607Z,100242.25
2022-10-19T07:09:42.034Z,100248.25
2022-10-19T07:12:10.774Z,100247.09
2022-10-19T07:14:39.665Z,100239.72
2022-10-19T07:17:06.975Z,100239.72
2022-10-19T07:19:34.095Z,100242.31
2022-10-19T07:22:00.653Z,100242.38
2022-10-19T07:24:27.145Z,100244.47
2022-10-19T07:26:53.805Z,100251.88
2022-10-19T07:29:20.838Z,100251.47
2022-10-19T07:31:47.661Z,100258.88
2022-10-19T07:34:14.926Z,100251.81
2022-10-19T07:36:45.364Z,100254.16
2022-10-19T07:39:13.232Z,100255.56
2022-10-19T07:41:40.211Z,100262.19
2022-10-19T07:44:08.209Z,100254.72
2022-10-19T07:46:39.237Z,100260.38
2022-10-19T07:49:09.869Z,100260.72
2022-10-19T07:51:40.037Z,100263.44
2022-10-19T07:54:06.744Z,100266.41
2022-10-19T07:56:33.363Z,100265.34
2022-10-19T07:59:00.477Z,100274.84
2022-10-19T08:01:34.890Z,100268.44
2022-10-19T08:06:48.236Z,100269.94
2022-10-19T08:09:33.423Z,100257.16
2022-10-19T08:12:01.948Z,100256.06
2022-10-19T08:14:28.464Z,100259.63
2022-10-19T08:16:54.905Z,100251.41
2022-10-19T08:19:22.664Z,100258.47
2022-10-19T08:21:49.172Z,100256.56
2022-10-19T08:24:17.805Z,100259.28
2022-10-19T08:26:44.671Z,100263.78
2022-10-19T08:29:16.556Z,100260.91
2022-10-19T08:31:44.170Z,100262.09
2022-10-19T08:34:11.586Z,100261.84
2022-10-19T08:36:38.183Z,100258.63
2022-10-19T08:39:06.790Z,100254.44
2022-10-19T08:41:38.218Z,100253.31
2022-10-19T08:44:25.871Z,100256.13
2022-10-19T08:47:02.399Z,100257.25
2022-10-19T08:49:31.518Z,100259.16
2022-10-19T08:52:00.793Z,100252.16
2022-10-19T08:54:44.139Z,100261.78
2022-10-19T08:57:25.152Z,100264.97
2022-10-19T09:00:06.885Z,100263.28
2022-10-19T09:02:45.360Z,100270.06
2022-10-19T09:05:45.443Z,100274.69
2022-10-19T09:08:16.801Z,100265.78
2022-10-19T09:10:47.136Z,100272.47
2022-10-19T09:13:21.250Z,100273.91
2022-10-19T09:15:49.442Z,100274.00
2022-10-19T09:18:22.783Z,100269.25
2022-10-19T09:20:51.124Z,100281.81
2022-10-19T09:23:17.475Z,100285.56
2022-10-19T09:25:43.959Z,100282.78
2022-10-19T09:28:38.779Z,100284.38
2022-10-19T09:31:07.775Z,100288.41
2022-10-19T09:33:36.534Z,100290.84
2022-10-19T09:36:05.327Z,100292.78
2022-10-19T09:38:32.986Z,100293.84
2022-10-19T09:41:12.901Z,100303.19
2022-10-19T09:43:39.610Z,100311.22
2022-10-19T09:46:19.768Z,100306.19
2022-10-19T09:48:51.372Z,100298.44
2022-10-19T09:51:18.846Z,100295.41
2022-10-19T09:53:51.673Z,100302.97
2022-10-19T09:56:24.153Z,100304.31
2022-10-19T09:58:52.870Z,100309.72
2022-10-19T10:01:43.217Z,100327.34
2022-10-19T10:04:17.981Z,100324.72
2022-10-19T10:06:47.286Z,100336.94
2022-10-19T10:09:18.634Z,100349.13
2022-10-19T10:11:48.119Z,100337.97
2022-10-19T10:14:20.813Z,100337.44
2022-10-19T10:16:47.656Z,100335.38
2022-10-19T10:19:16.372Z,100343.38
2022-10-19T10:21:51.124Z,100334.44
2022-10-19T10:24:20.177Z,100329.91
2022-10-19T10:26:52.629Z,100335.78
2022-10-19T10:29:33.227Z,100336.31
2022-10-19T10:32:05.368Z,100343.84
2022-10-19T10:34:59.981Z,100339.50
2022-10-19T10:37:38.391Z,100331.41
2022-10-19T10:40:05.981Z,100339.59
2022-10-19T10:42:37.188Z,100344.59
2022-10-19T10:45:04.634Z,100336.63
2022-10-19T10:47:32.541Z,100344.00
2022-10-19T10:50:03.377Z,100350.63
2022-10-19T10:52:34.202Z,100343.13
2022-10-19T10:55:17.497Z,100331.16
2022-10-19T10:57:48.319Z,100339.38
2022-10-19T11:00:20.247Z,100345.31
2022-10-19T11:02:52.445Z,100345.38
2022-10-19T11:05:26.863Z,100348.53
2022-10-19T11:07:58.996Z,100346.28
2022-10-19T11:10:35.782Z,100346.66
2022-10-19T11:13:28.233Z,100352.44
2022-10-19T11:16:03.023Z,100340.63
2022-10-19T11:18:34.938Z,100354.38
2022-10-19T11:21:06.896Z,100346.47
2022-10-19T11:23:55.569Z,100351.13
2022-10-19T11:26:32.866Z,100349.41
2022-10-19T11:29:50.662Z,100343.59
2022-10-19T11:32:46.053Z,100339.41
2022-10-19T11:35:36.579Z,100353.31
2022-10-19T11:38:22.067Z,100347.50
2022-10-19T11:43:45.712Z,100352.00
2022-10-19T11:46:26.546Z,100351.13
2022-10-19T11:49:20.363Z,100350.72
2022-10-19T11:51:57.475Z,100358.91
2022-10-19T11:54:58.288Z,100363.22
2022-10-19T11:57:36.966Z,100354.00
2022-10-19T12:00:15.314Z,100354.94
2022-10-19T12:06:18.079Z,100360.19
2022-10-19T12:09:10.668Z,100369.72
2022-10-19T12:11:43.213Z,100360.88
2022-10-19T12:14:13.941Z,100369.25
2022-10-19T12:16:43.939Z,100366.72
2022-10-19T12:19:19.965Z,100372.19
2022-10-19T12:21:46.773Z,100367.41
2022-10-19T12:24:19.785Z,100369.25
2022-10-19T12:26:47.183Z,100377.31
2022-10-19T12:29:21.255Z,100380.34
2022-10-19T12:31:51.052Z,100377.03
2022-10-19T12:34:33.397Z,100378.84
2022-10-19T12:37:07.399Z,100377.16
2022-10-19T12:39:39.801Z,100370.69
2022-10-19T12:42:29.783Z,100378.44
2022-10-19T12:45:18.523Z,100384.47
2022-10-19T12:48:08.593Z,100368.84
2022-10-19T12:50:56.865Z,100381.47
2022-10-19T12:53:31.452Z,100382.81
2022-10-19T12:56:23.023Z,100388.31
2022-10-19T12:59:01.704Z,100383.25
2022-10-19T13:01:34.110Z,100384.28
2022-10-19T13:04:20.671Z,100389.69
2022-10-19T13:06:51.957Z,100395.75
2022-10-19T13:09:39.623Z,100392.03
2022-10-19T13:12:19.455Z,100397.41
2022-10-19T13:14:52.803Z,100390.53
2022-10-19T13:17:35.034Z,100390.25
2022-10-19T13:20:13.727Z,100393.59
2022-10-19T13:22:44.969Z,100389.50
2022-10-19T13:25:17.490Z,100395.34
2022-10-19T13:27:45.237Z,100396.97
2022-10-19T13:30:36.948Z,100398.78
2022-10-19T13:33:25.434Z,100403.06
2022-10-19T13:36:10.694Z,100409.44
2022-10-19T13:38:45.078Z,100416.53
2022-10-19T13:41:19.618Z,100419.81
2022-10-19T13:44:14.998Z,100419.03
2022-10-19T13:46:53.779Z,100414.56
2022-10-19T13:49:33.027Z,100422.13
2022-10-19T13:52:32.861Z,100412.72
2022-10-19T13:55:46.445Z,100422.28
2022-10-19T13:58:48.049Z,100429.69
2022-10-19T14:01:23.371Z,100430.38
2022-10-19T14:04:10.850Z,100429.34
2022-10-19T14:07:05.607Z,100436.00
2022-10-19T14:09:44.635Z,100454.03
2022-10-19T14:12:25.498Z,100455.97
2022-10-19T14:14:53.750Z,100466.06
2022-10-19T14:17:24.603Z,100455.81
2022-10-19T14:19:57.129Z,100454.28
2022-10-19T14:22:26.578Z,100448.41
2022-10-19T14:25:01.158Z,100467.88
2022-10-19T14:27:27.672Z,100462.28
2022-10-19T14:29:54.599Z,100466.19
2022-10-19T14:32:27.130Z,100468.56
2022-10-19T14:34:54.752Z,100467.75
2022-10-19T14:37:23.646Z,100473.19
2022-10-19T14:40:27.571Z,100465.47
2022-10-19T14:42:55.226Z,100479.59
2022-10-19T14:45:24.199Z,100468.25
2022-10-19T14:47:56.032Z,100474.84
2022-10-19T14:50:46.149Z,100471.47
2022-10-19T14:53:20.812Z,100479.03
2022-10-19T14:55:48.449Z,100480.94
2022-10-19T14:58:19.315Z,100496.28
2022-10-19T15:00:47.411Z,100497.91
2022-10-19T15:03:21.932Z,100497.66
2022-10-19T15:05:49.739Z,100497.25
2022-10-19T15:08:48.557Z,100493.84
2022-10-19T15:11:41.209Z,100490.31
2022-10-19T15:14:15.762Z,100500.03
2022-10-19T15:16:51.500Z,100508.91
2022-10-19T15:19:33.358Z,100509.63
2022-10-19T15:22:19.850Z,100514.94
2022-10-19T15:25:21.905Z,100515.22
2022-10-19T15:27:51.030Z,100518.25
2022-10-19T15:30:17.473Z,100526.84
2022-10-19T15:32:46.189Z,100528.88
2022-10-19T15:35:20.406Z,100523.47
2022-10-19T15:37:48.954Z,100524.22
2022-10-19T15:40:36.662Z,100526.44
2022-10-19T15:43:31.562Z,100540.91
2022-10-19T15:46:03.449Z,100536.09
2022-10-19T15:48:50.012Z,100539.66
2022-10-19T15:51:33.936Z,100548.09
2022-10-19T15:54:02.539Z,100550.13
2022-10-19T15:56:32.395Z,100553.88
2022-10-19T15:59:01.042Z,100553.94
2022-10-19T16:01:29.807Z,100562.25
2022-10-19T16:03:57.013Z,100559.81
2022-10-19T16:06:25.901Z,100565.84
2022-10-19T16:08:54.057Z,100566.84
2022-10-19T16:11:21.858Z,100564.91
2022-10-19T16:13:48.800Z,100565.75
2022-10-19T16:16:26.997Z,100568.28
2022-10-19T16:18:54.503Z,100585.84
2022-10-19T16:21:24.843Z,100582.25
2022-10-19T16:23:51.742Z,100590.56
2022-10-19T16:26:19.198Z,100587.53
2022-10-19T16:28:45.947Z,100593.78
2022-10-19T16:31:12.576Z,100593.56
2022-10-19T16:33:39.116Z,100592.84
2022-10-19T16:36:07.068Z,100595.84
2022-10-19T16:38:34.247Z,100598.84
2022-10-19T16:41:06.017Z,100598.59
2022-10-19T16:43:33.212Z,100598.75
2022-10-19T16:46:00.820Z,100606.94
2022-10-19T16:48:27.641Z,100601.47
2022-10-19T16:51:06.762Z,100604.00
2022-10-19T16:53:34.615Z,100615.06
2022-10-19T16:56:05.626Z,100616.16
2022-10-19T16:58:32.911Z,100621.78
2022-10-19T17:01:02.256Z,100627.22
2022-10-19T17:03:28.813Z,100625.16
2022-10-19T17:05:55.469Z,100627.66
2022-10-19T17:08:36.421Z,100640.06
2022-10-19T17:11:10.811Z,100648.09
2022-10-19T17:13:37.418Z,100635.47
2022-10-19T17:16:05.756Z,100638.81
2022-10-19T17:18:33.167Z,100639.78
2022-10-19T17:21:07.643Z,100653.59
2022-10-19T17:23:34.327Z,100656.69
2022-10-19T17:26:01.213Z,100652.81
2022-10-19T17:28:27.969Z,100657.75
2022-10-19T17:30:54.631Z,100650.91
2022-10-19T17:33:22.053Z,100662.22
2022-10-19T17:35:48.512Z,100666.22
2022-10-19T17:38:15.222Z,100669.88
2022-10-19T17:40:41.643Z,100667.34
2022-10-19T17:43:08.223Z,100671.16
2022-10-19T17:45:34.913Z,100675.94
2022-10-19T17:48:01.469Z,100671.50
2022-10-19T17:50:27.906Z,100677.34
2022-10-19T17:52:54.644Z,100678.66
2022-10-19T17:57:48.891Z,100685.00
2022-10-19T18:00:15.473Z,100679.19
2022-10-19T18:02:44.362Z,100676.78
2022-10-19T18:05:10.923Z,100679.13
2022-10-19T18:07:37.756Z,100684.53
2022-10-19T18:10:04.743Z,100686.34
2022-10-19T18:12:32.162Z,100686.88
2022-10-19T18:14:58.698Z,100694.19
2022-10-19T18:17:27.654Z,100693.97
2022-10-19T18:19:54.417Z,100689.34
2022-10-19T18:22:21.883Z,100695.56
2022-10-19T18:24:49.478Z,100693.56
2022-10-19T18:27:15.982Z,100691.97
2022-10-19T18:29:42.531Z,100691.88
2022-10-19T18:32:09.101Z,100686.91
2022-10-19T18:34:35.567Z,100685.53
2022-10-19T18:37:02.169Z,100695.25
2022-10-19T18:39:28.714Z,100691.88
2022-10-19T18:41:55.313Z,100695.56
2022-10-19T18:44:26.291Z,100699.72
2022-10-19T18:46:53.836Z,100708.78
2022-10-19T18:49:20.363Z,100703.28
2022-10-19T18:51:50.745Z,100708.34
2022-10-19T18:54:21.035Z,100709.00
2022-10-19T18:56:47.673Z,100706.56
2022-10-19T18:59:14.589Z,100709.19
2022-10-19T19:01:41.130Z,100701.16
2022-10-19T19:04:09.310Z,100708.25
2022-10-19T19:06:36.945Z,100712.03
2022-10-19T19:09:06.749Z,100711.50
2022-10-19T19:11:36.901Z,100710.75
2022-10-19T19:14:07.529Z,100723.09
2022-10-19T19:16:37.025Z,100725.31
2022-10-19T19:19:04.147Z,100730.56
2022-10-19T19:21:31.569Z,100727.31
2022-10-19T19:24:00.082Z,100732.97
2022-10-19T19:26:28.789Z,100736.69
2022-10-19T19:28:55.362Z,100734.56
2022-10-19T19:31:21.951Z,100735.09
2022-10-19T19:33:48.574Z,100737.72
2022-10-19T19:36:16.936Z,100746.91
2022-10-19T19:38:44.457Z,100752.72
2022-10-19T19:41:13.000Z,100751.97
2022-10-19T19:43:39.893Z,100755.13
2022-10-19T19:46:09.602Z,100761.97
2022-10-19T19:48:37.019Z,100765.66
2022-10-19T19:51:03.617Z,100769.13
2022-10-19T19:53:31.065Z,100765.59
2022-10-19T19:55:57.679Z,100770.03
2022-10-19T19:58:24.105Z,100774.25
2022-10-19T20:00:50.517Z,100773.03
2022-10-19T20:03:16.993Z,100774.19
2022-10-19T20:05:43.483Z,100782.09
2022-10-19T20:08:10.115Z,100782.28
2022-10-19T20:10:40.348Z,100790.31
2022-10-19T20:13:07.321Z,100791.53
2022-10-19T20:15:37.311Z,100794.16
2022-10-19T20:18:03.778Z,100792.56
2022-10-19T20:20:30.546Z,100795.41
2022-10-19T20:22:57.522Z,100793.69
2022-10-19T20:25:24.126Z,100803.03
2022-10-19T20:27:50.636Z,100804.16
2022-10-19T20:30:19.018Z,100812.25
2022-10-19T20:32:45.529Z,100808.88
2022-10-19T20:35:11.972Z,100816.38
2022-10-19T20:37:38.445Z,100817.16
2022-10-19T20:40:08.515Z,100824.00
2022-10-19T20:42:35.728Z,100821.56
2022-10-19T20:45:02.515Z,100822.69
2022-10-19T20:47:29.460Z,100816.31
2022-10-19T20:49:55.947Z,100818.94
2022-10-19T20:52:22.748Z,100827.69
2022-10-19T20:54:49.329Z,100825.44
2022-10-19T20:57:15.771Z,100827.31
2022-10-19T20:59:43.803Z,100819.31
2022-10-19T21:02:10.942Z,100824.97
2022-10-19T21:04:37.692Z,100828.53
2022-10-19T21:07:05.076Z,100830.69
2022-10-19T21:09:32.208Z,100831.72
2022-10-19T21:11:59.121Z,100832.41
2022-10-19T21:14:28.875Z,100837.94
2022-10-19T21:16:57.164Z,100838.13
2022-10-19T21:19:25.541Z,100838.50
2022-10-19T21:21:57.791Z,100844.25
2022-10-19T21:24:26.955Z,100836.69
2022-10-19T21:26:53.598Z,100839.94
2022-10-19T21:29:20.168Z,100838.47
2022-10-19T21:31:50.086Z,100846.63
2022-10-19T21:34:19.251Z,100842.75
2022-10-19T21:36:45.752Z,100835.44
2022-10-19T21:39:12.223Z,100839.16
2022-10-19T21:41:38.730Z,100835.88
2022-10-19T21:44:05.326Z,100845.91
2022-10-19T21:46:32.266Z,100847.59
2022-10-19T21:48:58.738Z,100833.44
2022-10-19T21:51:42.438Z,100836.22
2022-10-19T21:56:43.610Z,100839.63
2022-10-19T21:59:10.475Z,100836.66
2022-10-19T22:01:40.154Z,100837.28
2022-10-19T22:04:11.107Z,100840.97
2022-10-19T22:06:37.722Z,100841.22
2022-10-19T22:09:05.665Z,100840.84
2022-10-19T22:11:32.365Z,100839.34
2022-10-19T22:14:00.794Z,100844.59
2022-10-19T22:16:28.810Z,100844.84
2022-10-19T22:18:55.829Z,100851.22
2022-10-19T22:21:28.701Z,100854.22
2022-10-19T22:24:06.969Z,100846.66
2022-10-19T22:26:36.312Z,100846.91
2022-10-19T22:29:04.400Z,100845.31
2022-10-19T22:31:32.649Z,100847.44
2022-10-19T22:34:04.909Z,100856.53
2022-10-19T22:36:32.260Z,100862.81
2022-10-19T22:38:58.667Z,100860.25
2022-10-19T22:41:25.213Z,100863.16
2022-10-19T22:43:51.693Z,100870.09
2022-10-19T22:46:18.195Z,100868.59
2022-10-19T22:48:45.048Z,100868.47
2022-10-19T22:51:11.495Z,100868.91
2022-10-19T22:53:38.039Z,100869.09
2022-10-19T22:56:05.152Z,100874.59
2022-10-19T22:58:32.321Z,100872.22
2022-10-19T23:01:03.782Z,100873.22
2022-10-19T23:03:30.862Z,100873.91
2022-10-19T23:05:57.503Z,100878.75
2022-10-19T23:08:23.948Z,100877.63
2022-10-19T23:10:50.384Z,100886.44
2022-10-19T23:13:17.177Z,100881.19
2022-10-19T23:15:44.752Z,100884.00
2022-10-19T23:18:12.001Z,100892.47
2022-10-19T23:20:38.487Z,100887.38
2022-10-19T23:23:05.589Z,100899.84
2022-10-19T23:28:03.795Z,100902.41
2022-10-19T23:30:31.034Z,100906.59
2022-10-19T23:32:57.594Z,100912.63
2022-10-19T23:35:24.115Z,100917.41
2022-10-19T23:37:50.641Z,100917.41
2022-10-19T23:40:17.334Z,100918.53
2022-10-19T23:42:43.826Z,100923.25
2022-10-19T23:45:10.564Z,100922.53
2022-10-19T23:47:37.390Z,100921.75
2022-10-19T23:50:04.200Z,100927.34
2022-10-19T23:52:31.082Z,100928.13
2022-10-19T23:54:57.510Z,100925.81
2022-10-19T23:57:23.953Z,100927.50
2022-10-19T23:59:50.346Z,100931.06
